sensor_id;sensor_type;location;lat;lon;timestamp;P1;durP1;ratioP1;P2;durP2;ratioP2
54555;SDS011;57291;37.520;15.106;2024-01-10T00:01:26;7.28;;;4.38;;
54555;SDS011;57291;37.520;15.106;2024-01-10T00:03:54;6.05;;;4.10;;
54555;SDS011;57291;37.520;15.106;2024-01-10T00:06:21;7.28;;;4.60;;
54555;SDS011;57291;37.520;15.106;2024-01-10T00:08:50;5.80;;;4.40;;
54555;SDS011;57291;37.520;15.106;2024-01-10T00:11:17;6.57;;;4.40;;
54555;SDS011;57291;37.520;15.106;2024-01-10T00:13:45;5.55;;;4.32;;
54555;SDS011;57291;37.520;15.106;2024-01-10T00:16:14;6.22;;;4.32;;
54555;SDS011;57291;37.520;15.106;2024-01-10T00:18:41;6.78;;;4.75;;
54555;SDS011;57291;37.520;15.106;2024-01-10T00:21:09;7.07;;;4.80;;
54555;SDS011;57291;37.520;15.106;2024-01-10T00:23:37;6.35;;;4.72;;
54555;SDS011;57291;37.520;15.106;2024-01-10T00:26:04;6.28;;;4.30;;
54555;SDS011;57291;37.520;15.106;2024-01-10T00:28:32;7.72;;;4.38;;
54555;SDS011;57291;37.520;15.106;2024-01-10T00:30:59;7.47;;;4.40;;
54555;SDS011;57291;37.520;15.106;2024-01-10T00:33:26;7.13;;;4.72;;
54555;SDS011;57291;37.520;15.106;2024-01-10T00:35:54;8.43;;;4.47;;
54555;SDS011;57291;37.520;15.106;2024-01-10T00:38:21;6.40;;;4.25;;
54555;SDS011;57291;37.520;15.106;2024-01-10T00:40:49;5.13;;;4.03;;
54555;SDS011;57291;37.520;15.106;2024-01-10T00:43:16;6.18;;;4.40;;
54555;SDS011;57291;37.520;15.106;2024-01-10T00:45:43;7.30;;;4.90;;
54555;SDS011;57291;37.520;15.106;2024-01-10T00:48:10;8.05;;;4.60;;
54555;SDS011;57291;37.520;15.106;2024-01-10T00:50:38;7.25;;;4.72;;
54555;SDS011;57291;37.520;15.106;2024-01-10T00:53:06;6.82;;;4.03;;
54555;SDS011;57291;37.520;15.106;2024-01-10T00:55:34;7.50;;;4.70;;
54555;SDS011;57291;37.520;15.106;2024-01-10T00:58:01;7.90;;;4.82;;
54555;SDS011;57291;37.520;15.106;2024-01-10T01:00:28;6.82;;;4.40;;
54555;SDS011;57291;37.520;15.106;2024-01-10T01:02:56;6.75;;;4.82;;
54555;SDS011;57291;37.520;15.106;2024-01-10T01:05:23;7.10;;;5.05;;
54555;SDS011;57291;37.520;15.106;2024-01-10T01:07:51;5.93;;;4.20;;
54555;SDS011;57291;37.520;15.106;2024-01-10T01:10:18;5.75;;;4.60;;
54555;SDS011;57291;37.520;15.106;2024-01-10T01:12:45;7.35;;;4.50;;
54555;SDS011;57291;37.520;15.106;2024-01-10T01:15:13;7.10;;;4.63;;
54555;SDS011;57291;37.520;15.106;2024-01-10T01:17:40;6.53;;;4.60;;
54555;SDS011;57291;37.520;15.106;2024-01-10T01:20:08;7.60;;;4.47;;
54555;SDS011;57291;37.520;15.106;2024-01-10T01:22:36;8.15;;;4.90;;
54555;SDS011;57291;37.520;15.106;2024-01-10T01:25:03;6.07;;;4.63;;
54555;SDS011;57291;37.520;15.106;2024-01-10T01:27:31;8.80;;;4.70;;
54555;SDS011;57291;37.520;15.106;2024-01-10T01:29:58;9.27;;;5.20;;
54555;SDS011;57291;37.520;15.106;2024-01-10T01:32:25;6.50;;;4.40;;
54555;SDS011;57291;37.520;15.106;2024-01-10T01:34:53;7.30;;;4.95;;
54555;SDS011;57291;37.520;15.106;2024-01-10T01:37:21;9.00;;;4.65;;
54555;SDS011;57291;37.520;15.106;2024-01-10T01:39:49;8.88;;;5.07;;
54555;SDS011;57291;37.520;15.106;2024-01-10T01:42:16;6.45;;;4.88;;
54555;SDS011;57291;37.520;15.106;2024-01-10T01:44:44;7.47;;;5.13;;
54555;SDS011;57291;37.520;15.106;2024-01-10T01:47:11;6.95;;;5.10;;
54555;SDS011;57291;37.520;15.106;2024-01-10T01:49:39;6.97;;;5.22;;
54555;SDS011;57291;37.520;15.106;2024-01-10T01:52:06;7.68;;;4.85;;
54555;SDS011;57291;37.520;15.106;2024-01-10T01:54:34;8.02;;;5.28;;
54555;SDS011;57291;37.520;15.106;2024-01-10T01:57:02;7.32;;;4.55;;
54555;SDS011;57291;37.520;15.106;2024-01-10T01:59:29;8.75;;;5.20;;
54555;SDS011;57291;37.520;15.106;2024-01-10T02:01:57;11.70;;;5.53;;
54555;SDS011;57291;37.520;15.106;2024-01-10T02:04:29;9.07;;;5.38;;
54555;SDS011;57291;37.520;15.106;2024-01-10T02:06:57;8.95;;;5.68;;
54555;SDS011;57291;37.520;15.106;2024-01-10T02:09:25;7.53;;;4.78;;
54555;SDS011;57291;37.520;15.106;2024-01-10T02:11:53;7.10;;;4.70;;
54555;SDS011;57291;37.520;15.106;2024-01-10T02:14:20;8.70;;;4.45;;
54555;SDS011;57291;37.520;15.106;2024-01-10T02:16:48;6.47;;;4.70;;
54555;SDS011;57291;37.520;15.106;2024-01-10T02:19:21;6.95;;;4.47;;
54555;SDS011;57291;37.520;15.106;2024-01-10T02:21:50;9.65;;;5.13;;
54555;SDS011;57291;37.520;15.106;2024-01-10T02:24:18;7.57;;;4.70;;
54555;SDS011;57291;37.520;15.106;2024-01-10T02:26:45;7.82;;;4.85;;
54555;SDS011;57291;37.520;15.106;2024-01-10T02:29:13;7.47;;;4.20;;
54555;SDS011;57291;37.520;15.106;2024-01-10T02:31:40;6.10;;;4.47;;
54555;SDS011;57291;37.520;15.106;2024-01-10T02:34:08;7.95;;;4.50;;
54555;SDS011;57291;37.520;15.106;2024-01-10T02:36:35;6.07;;;3.95;;
54555;SDS011;57291;37.520;15.106;2024-01-10T02:39:03;6.93;;;3.85;;
54555;SDS011;57291;37.520;15.106;2024-01-10T02:41:30;6.13;;;4.40;;
54555;SDS011;57291;37.520;15.106;2024-01-10T02:43:57;6.47;;;4.03;;
54555;SDS011;57291;37.520;15.106;2024-01-10T02:46:26;5.78;;;4.20;;
54555;SDS011;57291;37.520;15.106;2024-01-10T02:48:56;6.50;;;4.20;;
54555;SDS011;57291;37.520;15.106;2024-01-10T02:51:26;7.07;;;4.40;;
54555;SDS011;57291;37.520;15.106;2024-01-10T02:53:54;7.97;;;4.30;;
54555;SDS011;57291;37.520;15.106;2024-01-10T02:56:21;6.38;;;4.10;;
54555;SDS011;57291;37.520;15.106;2024-01-10T02:58:49;9.88;;;4.40;;
54555;SDS011;57291;37.520;15.106;2024-01-10T03:01:16;7.00;;;3.83;;
54555;SDS011;57291;37.520;15.106;2024-01-10T03:03:43;4.75;;;3.50;;
54555;SDS011;57291;37.520;15.106;2024-01-10T03:06:12;6.97;;;4.25;;
54555;SDS011;57291;37.520;15.106;2024-01-10T03:08:40;6.10;;;3.90;;
54555;SDS011;57291;37.520;15.106;2024-01-10T03:11:07;6.68;;;3.72;;
54555;SDS011;57291;37.520;15.106;2024-01-10T03:13:34;5.22;;;3.88;;
54555;SDS011;57291;37.520;15.106;2024-01-10T03:16:02;5.97;;;3.97;;
54555;SDS011;57291;37.520;15.106;2024-01-10T03:18:29;5.50;;;3.88;;
54555;SDS011;57291;37.520;15.106;2024-01-10T03:20:57;8.60;;;4.28;;
54555;SDS011;57291;37.520;15.106;2024-01-10T03:23:25;6.07;;;4.13;;
54555;SDS011;57291;37.520;15.106;2024-01-10T03:25:55;5.75;;;4.03;;
54555;SDS011;57291;37.520;15.106;2024-01-10T03:28:23;4.95;;;3.95;;
54555;SDS011;57291;37.520;15.106;2024-01-10T03:30:51;5.32;;;4.15;;
54555;SDS011;57291;37.520;15.106;2024-01-10T03:33:19;6.53;;;3.83;;
54555;SDS011;57291;37.520;15.106;2024-01-10T03:35:46;7.55;;;4.20;;
54555;SDS011;57291;37.520;15.106;2024-01-10T03:38:13;6.18;;;3.95;;
54555;SDS011;57291;37.520;15.106;2024-01-10T03:40:43;4.47;;;3.80;;
54555;SDS011;57291;37.520;15.106;2024-01-10T03:43:10;5.25;;;3.90;;
54555;SDS011;57291;37.520;15.106;2024-01-10T03:45:40;5.05;;;4.05;;
54555;SDS011;57291;37.520;15.106;2024-01-10T03:48:07;4.55;;;3.35;;
54555;SDS011;57291;37.520;15.106;2024-01-10T03:50:35;8.63;;;3.88;;
54555;SDS011;57291;37.520;15.106;2024-01-10T03:53:02;6.53;;;3.70;;
54555;SDS011;57291;37.520;15.106;2024-01-10T03:55:30;5.70;;;3.50;;
54555;SDS011;57291;37.520;15.106;2024-01-10T03:57:57;6.07;;;3.47;;
54555;SDS011;57291;37.520;15.106;2024-01-10T04:00:25;5.72;;;3.40;;
54555;SDS011;57291;37.520;15.106;2024-01-10T04:02:52;5.15;;;3.47;;
54555;SDS011;57291;37.520;15.106;2024-01-10T04:05:21;4.88;;;3.22;;
54555;SDS011;57291;37.520;15.106;2024-01-10T04:07:49;5.85;;;3.55;;
54555;SDS011;57291;37.520;15.106;2024-01-10T04:10:16;4.45;;;2.90;;
54555;SDS011;57291;37.520;15.106;2024-01-10T04:12:43;4.57;;;3.20;;
54555;SDS011;57291;37.520;15.106;2024-01-10T04:15:11;4.38;;;3.20;;
54555;SDS011;57291;37.520;15.106;2024-01-10T04:17:39;6.15;;;3.40;;
54555;SDS011;57291;37.520;15.106;2024-01-10T04:20:07;6.45;;;3.60;;
54555;SDS011;57291;37.520;15.106;2024-01-10T04:22:36;6.15;;;3.60;;
54555;SDS011;57291;37.520;15.106;2024-01-10T04:25:04;7.53;;;4.43;;
54555;SDS011;57291;37.520;15.106;2024-01-10T04:27:33;7.70;;;4.13;;
54555;SDS011;57291;37.520;15.106;2024-01-10T04:30:00;5.53;;;3.95;;
54555;SDS011;57291;37.520;15.106;2024-01-10T04:32:27;8.88;;;4.30;;
54555;SDS011;57291;37.520;15.106;2024-01-10T04:34:55;7.22;;;4.05;;
54555;SDS011;57291;37.520;15.106;2024-01-10T04:37:23;7.35;;;3.90;;
54555;SDS011;57291;37.520;15.106;2024-01-10T04:39:50;6.20;;;4.07;;
54555;SDS011;57291;37.520;15.106;2024-01-10T04:42:17;5.85;;;3.63;;
54555;SDS011;57291;37.520;15.106;2024-01-10T04:44:45;6.78;;;4.63;;
54555;SDS011;57291;37.520;15.106;2024-01-10T04:47:12;7.97;;;4.30;;
54555;SDS011;57291;37.520;15.106;2024-01-10T04:49:41;8.63;;;4.82;;
54555;SDS011;57291;37.520;15.106;2024-01-10T04:52:08;74.57;;;36.97;;
54555;SDS011;57291;37.520;15.106;2024-01-10T04:54:35;77.72;;;40.00;;
54555;SDS011;57291;37.520;15.106;2024-01-10T04:57:03;19.45;;;12.07;;
54555;SDS011;57291;37.520;15.106;2024-01-10T04:59:30;12.15;;;7.15;;
54555;SDS011;57291;37.520;15.106;2024-01-10T05:01:58;10.93;;;5.95;;
54555;SDS011;57291;37.520;15.106;2024-01-10T05:04:25;8.10;;;5.53;;
54555;SDS011;57291;37.520;15.106;2024-01-10T05:06:53;9.35;;;5.18;;
54555;SDS011;57291;37.520;15.106;2024-01-10T05:09:20;7.10;;;5.78;;
54555;SDS011;57291;37.520;15.106;2024-01-10T05:11:47;7.80;;;5.53;;
54555;SDS011;57291;37.520;15.106;2024-01-10T05:14:17;6.15;;;4.90;;
54555;SDS011;57291;37.520;15.106;2024-01-10T05:16:48;5.82;;;4.35;;
54555;SDS011;57291;37.520;15.106;2024-01-10T05:19:16;5.68;;;4.50;;
54555;SDS011;57291;37.520;15.106;2024-01-10T05:21:43;5.95;;;4.45;;
54555;SDS011;57291;37.520;15.106;2024-01-10T05:24:11;6.45;;;4.55;;
54555;SDS011;57291;37.520;15.106;2024-01-10T05:26:39;6.93;;;4.63;;
54555;SDS011;57291;37.520;15.106;2024-01-10T05:29:06;6.07;;;4.38;;
54555;SDS011;57291;37.520;15.106;2024-01-10T05:31:34;7.95;;;4.55;;
54555;SDS011;57291;37.520;15.106;2024-01-10T05:34:02;7.25;;;4.30;;
54555;SDS011;57291;37.520;15.106;2024-01-10T05:36:29;7.03;;;4.47;;
54555;SDS011;57291;37.520;15.106;2024-01-10T05:38:57;7.95;;;4.82;;
54555;SDS011;57291;37.520;15.106;2024-01-10T05:41:24;9.32;;;5.70;;
54555;SDS011;57291;37.520;15.106;2024-01-10T05:43:52;8.75;;;5.60;;
54555;SDS011;57291;37.520;15.106;2024-01-10T05:46:20;8.90;;;5.63;;
54555;SDS011;57291;37.520;15.106;2024-01-10T05:48:47;11.75;;;6.60;;
54555;SDS011;57291;37.520;15.106;2024-01-10T05:51:15;10.00;;;6.55;;
54555;SDS011;57291;37.520;15.106;2024-01-10T05:53:42;10.60;;;6.75;;
54555;SDS011;57291;37.520;15.106;2024-01-10T05:56:10;9.13;;;6.03;;
54555;SDS011;57291;37.520;15.106;2024-01-10T05:58:38;9.23;;;5.55;;
54555;SDS011;57291;37.520;15.106;2024-01-10T06:01:06;8.00;;;5.00;;
54555;SDS011;57291;37.520;15.106;2024-01-10T06:03:37;9.77;;;5.70;;
54555;SDS011;57291;37.520;15.106;2024-01-10T06:06:06;13.13;;;9.57;;
54555;SDS011;57291;37.520;15.106;2024-01-10T06:08:33;6.70;;;4.95;;
54555;SDS011;57291;37.520;15.106;2024-01-10T06:11:03;9.68;;;5.10;;
54555;SDS011;57291;37.520;15.106;2024-01-10T06:13:33;12.85;;;5.88;;
54555;SDS011;57291;37.520;15.106;2024-01-10T06:16:15;10.20;;;5.93;;
54555;SDS011;57291;37.520;15.106;2024-01-10T06:18:44;11.50;;;5.68;;
54555;SDS011;57291;37.520;15.106;2024-01-10T06:21:14;7.53;;;5.20;;
54555;SDS011;57291;37.520;15.106;2024-01-10T06:23:42;9.43;;;5.70;;
54555;SDS011;57291;37.520;15.106;2024-01-10T06:26:09;14.05;;;6.70;;
54555;SDS011;57291;37.520;15.106;2024-01-10T06:28:40;21.67;;;12.20;;
54555;SDS011;57291;37.520;15.106;2024-01-10T06:31:08;10.60;;;6.60;;
54555;SDS011;57291;37.520;15.106;2024-01-10T06:33:38;14.00;;;6.53;;
54555;SDS011;57291;37.520;15.106;2024-01-10T06:36:06;11.18;;;7.00;;
54555;SDS011;57291;37.520;15.106;2024-01-10T06:38:34;13.05;;;6.45;;
54555;SDS011;57291;37.520;15.106;2024-01-10T06:41:06;14.63;;;7.75;;
54555;SDS011;57291;37.520;15.106;2024-01-10T06:43:37;19.15;;;10.13;;
54555;SDS011;57291;37.520;15.106;2024-01-10T06:46:04;16.52;;;9.60;;
54555;SDS011;57291;37.520;15.106;2024-01-10T06:48:32;17.60;;;9.60;;
54555;SDS011;57291;37.520;15.106;2024-01-10T06:51:00;16.73;;;9.35;;
54555;SDS011;57291;37.520;15.106;2024-01-10T06:53:27;24.48;;;12.57;;
54555;SDS011;57291;37.520;15.106;2024-01-10T06:55:54;21.02;;;10.15;;
54555;SDS011;57291;37.520;15.106;2024-01-10T06:58:21;19.45;;;8.48;;
54555;SDS011;57291;37.520;15.106;2024-01-10T07:00:49;12.82;;;7.10;;
54555;SDS011;57291;37.520;15.106;2024-01-10T07:03:17;18.10;;;9.02;;
54555;SDS011;57291;37.520;15.106;2024-01-10T07:05:46;19.65;;;11.60;;
54555;SDS011;57291;37.520;15.106;2024-01-10T07:08:14;21.33;;;10.55;;
54555;SDS011;57291;37.520;15.106;2024-01-10T07:10:41;18.65;;;9.98;;
54555;SDS011;57291;37.520;15.106;2024-01-10T07:13:09;16.60;;;9.60;;
54555;SDS011;57291;37.520;15.106;2024-01-10T07:15:37;17.95;;;10.88;;
54555;SDS011;57291;37.520;15.106;2024-01-10T07:18:05;22.83;;;11.63;;
54555;SDS011;57291;37.520;15.106;2024-01-10T07:20:33;18.67;;;10.20;;
54555;SDS011;57291;37.520;15.106;2024-01-10T07:23:00;17.27;;;10.25;;
54555;SDS011;57291;37.520;15.106;2024-01-10T07:25:28;14.48;;;9.80;;
54555;SDS011;57291;37.520;15.106;2024-01-10T07:27:55;15.88;;;10.35;;
54555;SDS011;57291;37.520;15.106;2024-01-10T07:30:22;16.27;;;10.27;;
54555;SDS011;57291;37.520;15.106;2024-01-10T07:32:50;17.33;;;10.55;;
54555;SDS011;57291;37.520;15.106;2024-01-10T07:35:17;21.15;;;11.15;;
54555;SDS011;57291;37.520;15.106;2024-01-10T07:37:45;19.23;;;11.52;;
54555;SDS011;57291;37.520;15.106;2024-01-10T07:40:12;18.67;;;11.45;;
54555;SDS011;57291;37.520;15.106;2024-01-10T07:42:42;19.45;;;10.52;;
54555;SDS011;57291;37.520;15.106;2024-01-10T07:45:10;16.38;;;10.30;;
54555;SDS011;57291;37.520;15.106;2024-01-10T07:47:38;21.13;;;10.10;;
54555;SDS011;57291;37.520;15.106;2024-01-10T07:50:09;14.65;;;10.82;;
54555;SDS011;57291;37.520;15.106;2024-01-10T07:52:37;21.02;;;11.43;;
54555;SDS011;57291;37.520;15.106;2024-01-10T07:55:05;17.70;;;11.65;;
54555;SDS011;57291;37.520;15.106;2024-01-10T07:57:33;18.17;;;12.05;;
54555;SDS011;57291;37.520;15.106;2024-01-10T08:00:01;38.88;;;11.90;;
54555;SDS011;57291;37.520;15.106;2024-01-10T08:02:34;16.73;;;9.32;;
54555;SDS011;57291;37.520;15.106;2024-01-10T08:05:02;16.38;;;8.57;;
54555;SDS011;57291;37.520;15.106;2024-01-10T08:07:36;17.65;;;8.55;;
54555;SDS011;57291;37.520;15.106;2024-01-10T08:10:07;15.68;;;7.93;;
54555;SDS011;57291;37.520;15.106;2024-01-10T08:12:40;12.43;;;7.90;;
54555;SDS011;57291;37.520;15.106;2024-01-10T08:15:11;13.75;;;7.43;;
54555;SDS011;57291;37.520;15.106;2024-01-10T08:17:38;15.52;;;7.68;;
54555;SDS011;57291;37.520;15.106;2024-01-10T08:20:06;14.55;;;7.18;;
54555;SDS011;57291;37.520;15.106;2024-01-10T08:22:36;11.45;;;7.13;;
54555;SDS011;57291;37.520;15.106;2024-01-10T08:25:04;14.23;;;7.45;;
54555;SDS011;57291;37.520;15.106;2024-01-10T08:27:31;16.70;;;7.28;;
54555;SDS011;57291;37.520;15.106;2024-01-10T08:30:00;15.02;;;7.53;;
54555;SDS011;57291;37.520;15.106;2024-01-10T08:32:28;16.50;;;7.53;;
54555;SDS011;57291;37.520;15.106;2024-01-10T08:34:55;12.48;;;7.78;;
54555;SDS011;57291;37.520;15.106;2024-01-10T08:37:23;15.23;;;8.18;;
54555;SDS011;57291;37.520;15.106;2024-01-10T08:39:51;13.35;;;7.07;;
54555;SDS011;57291;37.520;15.106;2024-01-10T08:42:18;15.35;;;7.03;;
54555;SDS011;57291;37.520;15.106;2024-01-10T08:44:45;12.68;;;7.28;;
54555;SDS011;57291;37.520;15.106;2024-01-10T08:47:13;13.20;;;5.65;;
54555;SDS011;57291;37.520;15.106;2024-01-10T08:49:40;10.85;;;6.15;;
54555;SDS011;57291;37.520;15.106;2024-01-10T08:52:08;9.27;;;5.72;;
54555;SDS011;57291;37.520;15.106;2024-01-10T08:54:35;10.90;;;5.80;;
54555;SDS011;57291;37.520;15.106;2024-01-10T08:57:03;12.90;;;6.18;;
54555;SDS011;57291;37.520;15.106;2024-01-10T08:59:31;16.10;;;5.72;;
54555;SDS011;57291;37.520;15.106;2024-01-10T09:01:58;11.52;;;6.20;;
54555;SDS011;57291;37.520;15.106;2024-01-10T09:04:26;10.25;;;5.60;;
54555;SDS011;57291;37.520;15.106;2024-01-10T09:06:53;14.82;;;5.78;;
54555;SDS011;57291;37.520;15.106;2024-01-10T09:09:20;11.13;;;5.55;;
54555;SDS011;57291;37.520;15.106;2024-01-10T09:11:48;11.18;;;5.15;;
54555;SDS011;57291;37.520;15.106;2024-01-10T09:14:15;10.30;;;5.40;;
54555;SDS011;57291;37.520;15.106;2024-01-10T09:16:43;9.70;;;5.38;;
54555;SDS011;57291;37.520;15.106;2024-01-10T09:19:10;11.75;;;5.88;;
54555;SDS011;57291;37.520;15.106;2024-01-10T09:21:40;11.38;;;5.45;;
54555;SDS011;57291;37.520;15.106;2024-01-10T09:24:08;13.85;;;6.20;;
54555;SDS011;57291;37.520;15.106;2024-01-10T09:26:54;9.15;;;5.10;;
54555;SDS011;57291;37.520;15.106;2024-01-10T09:29:22;13.30;;;5.32;;
54555;SDS011;57291;37.520;15.106;2024-01-10T09:31:50;12.63;;;5.25;;
54555;SDS011;57291;37.520;15.106;2024-01-10T09:34:18;9.68;;;5.57;;
54555;SDS011;57291;37.520;15.106;2024-01-10T09:36:47;8.05;;;4.68;;
54555;SDS011;57291;37.520;15.106;2024-01-10T09:39:14;8.68;;;5.20;;
54555;SDS011;57291;37.520;15.106;2024-01-10T09:41:45;12.20;;;4.95;;
54555;SDS011;57291;37.520;15.106;2024-01-10T09:44:18;9.38;;;5.10;;
54555;SDS011;57291;37.520;15.106;2024-01-10T09:46:51;14.30;;;5.25;;
54555;SDS011;57291;37.520;15.106;2024-01-10T09:49:20;9.27;;;5.25;;
54555;SDS011;57291;37.520;15.106;2024-01-10T09:51:57;9.73;;;5.35;;
54555;SDS011;57291;37.520;15.106;2024-01-10T09:54:29;8.82;;;5.05;;
54555;SDS011;57291;37.520;15.106;2024-01-10T09:56:57;13.13;;;5.22;;
54555;SDS011;57291;37.520;15.106;2024-01-10T09:59:25;12.65;;;5.63;;
54555;SDS011;57291;37.520;15.106;2024-01-10T10:01:53;14.00;;;5.80;;
54555;SDS011;57291;37.520;15.106;2024-01-10T10:04:21;13.63;;;6.30;;
54555;SDS011;57291;37.520;15.106;2024-01-10T10:06:59;18.50;;;6.22;;
54555;SDS011;57291;37.520;15.106;2024-01-10T10:09:29;11.05;;;5.80;;
54555;SDS011;57291;37.520;15.106;2024-01-10T10:11:58;14.20;;;6.60;;
54555;SDS011;57291;37.520;15.106;2024-01-10T10:14:29;14.02;;;6.30;;
54555;SDS011;57291;37.520;15.106;2024-01-10T10:17:13;16.67;;;6.67;;
54555;SDS011;57291;37.520;15.106;2024-01-10T10:19:44;12.68;;;6.80;;
54555;SDS011;57291;37.520;15.106;2024-01-10T10:22:11;15.50;;;6.13;;
54555;SDS011;57291;37.520;15.106;2024-01-10T10:34:32;12.13;;;5.60;;
54555;SDS011;57291;37.520;15.106;2024-01-10T10:37:00;11.15;;;5.13;;
54555;SDS011;57291;37.520;15.106;2024-01-10T10:39:28;13.68;;;5.88;;
54555;SDS011;57291;37.520;15.106;2024-01-10T10:41:56;9.07;;;5.30;;
54555;SDS011;57291;37.520;15.106;2024-01-10T10:44:25;8.40;;;4.53;;
54555;SDS011;57291;37.520;15.106;2024-01-10T10:46:56;9.50;;;4.00;;
54555;SDS011;57291;37.520;15.106;2024-01-10T10:49:41;10.13;;;4.25;;
54555;SDS011;57291;37.520;15.106;2024-01-10T10:52:18;12.07;;;4.50;;
54555;SDS011;57291;37.520;15.106;2024-01-10T10:54:47;15.30;;;4.70;;
54555;SDS011;57291;37.520;15.106;2024-01-10T10:57:16;11.73;;;4.15;;
54555;SDS011;57291;37.520;15.106;2024-01-10T10:59:45;11.23;;;4.38;;
54555;SDS011;57291;37.520;15.106;2024-01-10T15:33:55;16.38;;;6.10;;
54555;SDS011;57291;37.520;15.106;2024-01-10T15:36:23;12.93;;;5.10;;
54555;SDS011;57291;37.520;15.106;2024-01-10T15:38:54;13.88;;;4.97;;
54555;SDS011;57291;37.520;15.106;2024-01-10T15:41:21;18.10;;;6.13;;
54555;SDS011;57291;37.520;15.106;2024-01-10T15:43:49;13.73;;;5.60;;
54555;SDS011;57291;37.520;15.106;2024-01-10T15:47:28;15.48;;;5.80;;
54555;SDS011;57291;37.520;15.106;2024-01-10T15:49:56;14.13;;;5.22;;
54555;SDS011;57291;37.520;15.106;2024-01-10T15:52:23;17.20;;;5.00;;
54555;SDS011;57291;37.520;15.106;2024-01-10T15:54:53;10.70;;;3.25;;
54555;SDS011;57291;37.520;15.106;2024-01-10T15:57:24;12.50;;;2.97;;
54555;SDS011;57291;37.520;15.106;2024-01-10T15:59:52;16.08;;;3.80;;
54555;SDS011;57291;37.520;15.106;2024-01-10T16:02:20;24.35;;;4.25;;
54555;SDS011;57291;37.520;15.106;2024-01-10T16:04:47;12.70;;;3.80;;
54555;SDS011;57291;37.520;15.106;2024-01-10T16:07:15;13.95;;;4.03;;
54555;SDS011;57291;37.520;15.106;2024-01-10T16:09:43;16.23;;;4.43;;
54555;SDS011;57291;37.520;15.106;2024-01-10T16:12:10;21.30;;;5.53;;
54555;SDS011;57291;37.520;15.106;2024-01-10T16:14:38;20.15;;;5.50;;
54555;SDS011;57291;37.520;15.106;2024-01-10T16:17:06;13.75;;;4.85;;
54555;SDS011;57291;37.520;15.106;2024-01-10T16:19:33;12.15;;;4.75;;
54555;SDS011;57291;37.520;15.106;2024-01-10T16:22:01;16.48;;;5.47;;
54555;SDS011;57291;37.520;15.106;2024-01-10T16:24:28;12.27;;;5.10;;
54555;SDS011;57291;37.520;15.106;2024-01-10T16:29:32;12.02;;;5.32;;
54555;SDS011;57291;37.520;15.106;2024-01-10T16:32:00;11.52;;;5.47;;
54555;SDS011;57291;37.520;15.106;2024-01-10T16:34:27;12.43;;;5.78;;
54555;SDS011;57291;37.520;15.106;2024-01-10T16:36:55;16.10;;;5.05;;
54555;SDS011;57291;37.520;15.106;2024-01-10T16:39:22;13.75;;;6.00;;
54555;SDS011;57291;37.520;15.106;2024-01-10T16:41:50;17.35;;;5.20;;
54555;SDS011;57291;37.520;15.106;2024-01-10T16:44:17;13.95;;;5.03;;
54555;SDS011;57291;37.520;15.106;2024-01-10T16:46:45;9.20;;;4.25;;
54555;SDS011;57291;37.520;15.106;2024-01-10T16:49:12;12.65;;;4.40;;
54555;SDS011;57291;37.520;15.106;2024-01-10T16:51:40;11.73;;;4.10;;
54555;SDS011;57291;37.520;15.106;2024-01-10T16:54:07;9.38;;;3.95;;
54555;SDS011;57291;37.520;15.106;2024-01-10T16:56:35;13.60;;;4.47;;
54555;SDS011;57291;37.520;15.106;2024-01-10T16:59:02;13.13;;;4.38;;
54555;SDS011;57291;37.520;15.106;2024-01-10T17:01:30;12.88;;;4.00;;
54555;SDS011;57291;37.520;15.106;2024-01-10T17:03:59;11.77;;;4.25;;
54555;SDS011;57291;37.520;15.106;2024-01-10T17:06:27;11.07;;;4.13;;
54555;SDS011;57291;37.520;15.106;2024-01-10T17:08:55;16.25;;;4.18;;
54555;SDS011;57291;37.520;15.106;2024-01-10T17:11:23;17.17;;;5.00;;
54555;SDS011;57291;37.520;15.106;2024-01-10T17:13:51;15.63;;;4.50;;
54555;SDS011;57291;37.520;15.106;2024-01-10T17:16:18;17.00;;;3.92;;
54555;SDS011;57291;37.520;15.106;2024-01-10T17:18:45;10.80;;;4.07;;
54555;SDS011;57291;37.520;15.106;2024-01-10T17:21:13;13.45;;;4.07;;
54555;SDS011;57291;37.520;15.106;2024-01-10T17:23:43;9.48;;;3.63;;
54555;SDS011;57291;37.520;15.106;2024-01-10T17:26:11;14.48;;;3.83;;
54555;SDS011;57291;37.520;15.106;2024-01-10T17:28:39;9.15;;;3.50;;
54555;SDS011;57291;37.520;15.106;2024-01-10T17:31:06;8.38;;;3.63;;
54555;SDS011;57291;37.520;15.106;2024-01-10T17:33:33;14.07;;;4.63;;
54555;SDS011;57291;37.520;15.106;2024-01-10T17:36:02;8.13;;;4.10;;
54555;SDS011;57291;37.520;15.106;2024-01-10T17:38:30;8.75;;;4.07;;
54555;SDS011;57291;37.520;15.106;2024-01-10T17:40:58;13.63;;;4.15;;
54555;SDS011;57291;37.520;15.106;2024-01-10T17:43:25;12.95;;;4.55;;
54555;SDS011;57291;37.520;15.106;2024-01-10T17:45:53;11.88;;;4.53;;
54555;SDS011;57291;37.520;15.106;2024-01-10T17:48:21;13.40;;;4.15;;
54555;SDS011;57291;37.520;15.106;2024-01-10T17:50:49;8.00;;;4.35;;
54555;SDS011;57291;37.520;15.106;2024-01-10T17:53:16;11.40;;;5.70;;
54555;SDS011;57291;37.520;15.106;2024-01-10T17:55:44;9.27;;;4.10;;
54555;SDS011;57291;37.520;15.106;2024-01-10T17:58:12;12.52;;;4.30;;
54555;SDS011;57291;37.520;15.106;2024-01-10T18:00:39;9.23;;;4.60;;
54555;SDS011;57291;37.520;15.106;2024-01-10T18:03:07;13.55;;;4.50;;
54555;SDS011;57291;37.520;15.106;2024-01-10T18:05:35;9.73;;;3.25;;
54555;SDS011;57291;37.520;15.106;2024-01-10T18:08:05;15.70;;;4.40;;
54555;SDS011;57291;37.520;15.106;2024-01-10T18:10:33;8.75;;;2.85;;
54555;SDS011;57291;37.520;15.106;2024-01-10T18:13:00;6.22;;;2.78;;
54555;SDS011;57291;37.520;15.106;2024-01-10T18:15:29;14.35;;;3.35;;
54555;SDS011;57291;37.520;15.106;2024-01-10T18:17:57;12.85;;;4.00;;
54555;SDS011;57291;37.520;15.106;2024-01-10T18:20:24;11.68;;;4.40;;
54555;SDS011;57291;37.520;15.106;2024-01-10T18:22:52;12.88;;;4.32;;
54555;SDS011;57291;37.520;15.106;2024-01-10T18:25:19;12.80;;;4.20;;
54555;SDS011;57291;37.520;15.106;2024-01-10T18:27:47;12.82;;;4.22;;
54555;SDS011;57291;37.520;15.106;2024-01-10T18:30:15;14.50;;;4.50;;
54555;SDS011;57291;37.520;15.106;2024-01-10T18:32:44;19.83;;;4.53;;
54555;SDS011;57291;37.520;15.106;2024-01-10T18:35:14;12.55;;;4.40;;
54555;SDS011;57291;37.520;15.106;2024-01-10T18:37:49;11.05;;;3.95;;
54555;SDS011;57291;37.520;15.106;2024-01-10T18:40:16;11.75;;;4.20;;
54555;SDS011;57291;37.520;15.106;2024-01-10T18:42:44;14.30;;;5.10;;
54555;SDS011;57291;37.520;15.106;2024-01-10T18:45:12;21.17;;;5.05;;
54555;SDS011;57291;37.520;15.106;2024-01-10T18:47:40;18.60;;;4.50;;
54555;SDS011;57291;37.520;15.106;2024-01-10T18:50:08;13.88;;;4.32;;
54555;SDS011;57291;37.520;15.106;2024-01-10T18:52:36;15.07;;;4.75;;
54555;SDS011;57291;37.520;15.106;2024-01-10T18:55:04;18.45;;;5.35;;
54555;SDS011;57291;37.520;15.106;2024-01-10T18:57:33;23.17;;;4.90;;
54555;SDS011;57291;37.520;15.106;2024-01-10T19:00:00;16.52;;;4.38;;
54555;SDS011;57291;37.520;15.106;2024-01-10T19:02:30;16.67;;;4.38;;
54555;SDS011;57291;37.520;15.106;2024-01-10T19:04:57;18.75;;;4.75;;
54555;SDS011;57291;37.520;15.106;2024-01-10T19:07:25;19.98;;;4.95;;
54555;SDS011;57291;37.520;15.106;2024-01-10T19:09:52;17.92;;;4.25;;
54555;SDS011;57291;37.520;15.106;2024-01-10T19:12:20;13.40;;;3.90;;
54555;SDS011;57291;37.520;15.106;2024-01-10T19:14:47;14.65;;;4.03;;
54555;SDS011;57291;37.520;15.106;2024-01-10T19:17:15;13.40;;;4.43;;